sensor_id;sensor_type;location;lat;lon;timestamp;P1;durP1;ratioP1;P2;durP2;ratioP2
9108;SDS011;4590;51.462;6.692;2023-10-13T00:01:19;9.32;;;5.95;;
9108;SDS011;4590;51.462;6.692;2023-10-13T00:03:45;8.37;;;5.70;;
9108;SDS011;4590;51.462;6.692;2023-10-13T00:06:10;10.77;;;5.88;;
9108;SDS011;4590;51.462;6.692;2023-10-13T00:08:35;8.70;;;5.70;;
9108;SDS011;4590;51.462;6.692;2023-10-13T00:11:01;9.95;;;5.90;;
9108;SDS011;4590;51.462;6.692;2023-10-13T00:13:28;8.40;;;5.53;;
9108;SDS011;4590;51.462;6.692;2023-10-13T00:15:59;8.20;;;5.82;;
9108;SDS011;4590;51.462;6.692;2023-10-13T00:20:59;9.30;;;5.50;;
9108;SDS011;4590;51.462;6.692;2023-10-13T00:23:37;11.02;;;5.55;;
9108;SDS011;4590;51.462;6.692;2023-10-13T00:26:02;8.45;;;5.45;;
9108;SDS011;4590;51.462;6.692;2023-10-13T00:28:28;8.82;;;5.50;;
9108;SDS011;4590;51.462;6.692;2023-10-13T00:31:10;7.25;;;5.30;;
9108;SDS011;4590;51.462;6.692;2023-10-13T00:33:37;8.73;;;5.57;;
9108;SDS011;4590;51.462;6.692;2023-10-13T00:36:03;8.57;;;5.25;;
9108;SDS011;4590;51.462;6.692;2023-10-13T00:38:30;10.40;;;6.15;;
9108;SDS011;4590;51.462;6.692;2023-10-13T00:40:55;12.18;;;5.80;;
9108;SDS011;4590;51.462;6.692;2023-10-13T00:43:28;9.77;;;5.55;;
9108;SDS011;4590;51.462;6.692;2023-10-13T00:45:54;8.23;;;4.70;;
9108;SDS011;4590;51.462;6.692;2023-10-13T00:48:23;8.43;;;5.47;;
9108;SDS011;4590;51.462;6.692;2023-10-13T00:50:54;7.80;;;4.72;;
9108;SDS011;4590;51.462;6.692;2023-10-13T00:53:21;8.75;;;5.22;;
9108;SDS011;4590;51.462;6.692;2023-10-13T00:55:50;9.15;;;5.35;;
9108;SDS011;4590;51.462;6.692;2023-10-13T00:58:15;8.43;;;5.28;;
9108;SDS011;4590;51.462;6.692;2023-10-13T01:00:47;9.57;;;5.18;;
9108;SDS011;4590;51.462;6.692;2023-10-13T01:03:13;9.82;;;5.25;;
9108;SDS011;4590;51.462;6.692;2023-10-13T01:05:39;7.47;;;5.30;;
9108;SDS011;4590;51.462;6.692;2023-10-13T01:08:06;9.27;;;5.50;;
9108;SDS011;4590;51.462;6.692;2023-10-13T01:10:36;9.10;;;5.13;;
9108;SDS011;4590;51.462;6.692;2023-10-13T01:15:28;8.73;;;5.45;;
9108;SDS011;4590;51.462;6.692;2023-10-13T01:18:10;9.50;;;5.40;;
9108;SDS011;4590;51.462;6.692;2023-10-13T01:20:38;7.97;;;5.13;;
9108;SDS011;4590;51.462;6.692;2023-10-13T01:23:11;8.35;;;4.72;;
9108;SDS011;4590;51.462;6.692;2023-10-13T01:25:44;8.00;;;5.80;;
9108;SDS011;4590;51.462;6.692;2023-10-13T01:28:13;7.85;;;4.80;;
9108;SDS011;4590;51.462;6.692;2023-10-13T01:30:45;9.80;;;5.43;;
9108;SDS011;4590;51.462;6.692;2023-10-13T01:33:14;8.85;;;5.57;;
9108;SDS011;4590;51.462;6.692;2023-10-13T01:35:40;7.32;;;5.40;;
9108;SDS011;4590;51.462;6.692;2023-10-13T01:38:12;8.45;;;5.35;;
9108;SDS011;4590;51.462;6.692;2023-10-13T01:40:39;8.45;;;5.82;;
9108;SDS011;4590;51.462;6.692;2023-10-13T01:43:04;7.97;;;5.57;;
9108;SDS011;4590;51.462;6.692;2023-10-13T01:45:29;8.05;;;5.68;;
9108;SDS011;4590;51.462;6.692;2023-10-13T01:47:55;8.70;;;5.90;;
9108;SDS011;4590;51.462;6.692;2023-10-13T01:50:21;8.73;;;5.32;;
9108;SDS011;4590;51.462;6.692;2023-10-13T01:52:53;8.23;;;4.85;;
9108;SDS011;4590;51.462;6.692;2023-10-13T01:55:38;8.75;;;5.80;;
9108;SDS011;4590;51.462;6.692;2023-10-13T01:58:07;7.88;;;5.43;;
9108;SDS011;4590;51.462;6.692;2023-10-13T02:00:39;10.32;;;5.40;;
9108;SDS011;4590;51.462;6.692;2023-10-13T02:03:07;8.05;;;4.78;;
9108;SDS011;4590;51.462;6.692;2023-10-13T02:05:41;8.00;;;5.72;;
9108;SDS011;4590;51.462;6.692;2023-10-13T02:08:14;9.15;;;6.00;;
9108;SDS011;4590;51.462;6.692;2023-10-13T02:10:47;10.32;;;5.22;;
9108;SDS011;4590;51.462;6.692;2023-10-13T02:13:16;7.38;;;5.05;;
9108;SDS011;4590;51.462;6.692;2023-10-13T02:15:43;8.38;;;5.20;;
9108;SDS011;4590;51.462;6.692;2023-10-13T02:18:09;9.93;;;6.10;;
9108;SDS011;4590;51.462;6.692;2023-10-13T02:20:39;9.50;;;6.20;;
9108;SDS011;4590;51.462;6.692;2023-10-13T02:23:08;10.10;;;5.80;;
9108;SDS011;4590;51.462;6.692;2023-10-13T02:25:36;9.50;;;5.60;;
9108;SDS011;4590;51.462;6.692;2023-10-13T02:28:08;9.50;;;5.65;;
9108;SDS011;4590;51.462;6.692;2023-10-13T02:30:39;9.25;;;5.57;;
9108;SDS011;4590;51.462;6.692;2023-10-13T02:33:13;7.72;;;5.60;;
9108;SDS011;4590;51.462;6.692;2023-10-13T02:35:40;8.93;;;5.40;;
9108;SDS011;4590;51.462;6.692;2023-10-13T02:38:23;12.13;;;5.65;;
9108;SDS011;4590;51.462;6.692;2023-10-13T02:40:53;9.45;;;6.20;;
9108;SDS011;4590;51.462;6.692;2023-10-13T02:43:21;10.77;;;6.45;;
9108;SDS011;4590;51.462;6.692;2023-10-13T02:45:53;10.43;;;6.55;;
9108;SDS011;4590;51.462;6.692;2023-10-13T02:48:26;9.98;;;6.68;;
9108;SDS011;4590;51.462;6.692;2023-10-13T02:51:04;10.02;;;6.35;;
9108;SDS011;4590;51.462;6.692;2023-10-13T02:53:40;14.48;;;6.68;;
9108;SDS011;4590;51.462;6.692;2023-10-13T02:56:14;9.80;;;6.65;;
9108;SDS011;4590;51.462;6.692;2023-10-13T02:58:46;11.40;;;6.88;;
9108;SDS011;4590;51.462;6.692;2023-10-13T03:01:18;8.07;;;5.50;;
9108;SDS011;4590;51.462;6.692;2023-10-13T03:03:47;9.63;;;6.63;;
9108;SDS011;4590;51.462;6.692;2023-10-13T03:06:19;10.57;;;6.55;;
9108;SDS011;4590;51.462;6.692;2023-10-13T03:08:58;11.25;;;6.32;;
9108;SDS011;4590;51.462;6.692;2023-10-13T03:11:52;9.10;;;6.28;;
9108;SDS011;4590;51.462;6.692;2023-10-13T03:14:18;10.45;;;6.85;;
9108;SDS011;4590;51.462;6.692;2023-10-13T03:16:51;8.23;;;5.60;;
9108;SDS011;4590;51.462;6.692;2023-10-13T03:19:27;8.48;;;5.88;;
9108;SDS011;4590;51.462;6.692;2023-10-13T03:21:57;9.65;;;6.30;;
9108;SDS011;4590;51.462;6.692;2023-10-13T03:24:41;9.85;;;6.72;;
9108;SDS011;4590;51.462;6.692;2023-10-13T03:27:15;9.23;;;6.07;;
9108;SDS011;4590;51.462;6.692;2023-10-13T03:29:42;8.95;;;5.85;;
9108;SDS011;4590;51.462;6.692;2023-10-13T03:32:10;9.30;;;6.45;;
9108;SDS011;4590;51.462;6.692;2023-10-13T03:34:45;8.43;;;6.15;;
9108;SDS011;4590;51.462;6.692;2023-10-13T03:37:39;7.90;;;5.63;;
9108;SDS011;4590;51.462;6.692;2023-10-13T03:40:09;11.05;;;6.80;;
9108;SDS011;4590;51.462;6.692;2023-10-13T03:43:01;8.75;;;5.68;;
9108;SDS011;4590;51.462;6.692;2023-10-13T03:45:33;8.70;;;5.93;;
9108;SDS011;4590;51.462;6.692;2023-10-13T03:48:08;12.68;;;6.72;;
9108;SDS011;4590;51.462;6.692;2023-10-13T03:50:35;11.35;;;6.40;;
9108;SDS011;4590;51.462;6.692;2023-10-13T03:53:01;10.13;;;6.40;;
9108;SDS011;4590;51.462;6.692;2023-10-13T03:55:27;10.45;;;6.75;;
9108;SDS011;4590;51.462;6.692;2023-10-13T03:57:59;12.20;;;6.35;;
9108;SDS011;4590;51.462;6.692;2023-10-13T04:00:25;9.18;;;6.18;;
9108;SDS011;4590;51.462;6.692;2023-10-13T04:02:52;10.68;;;7.10;;
9108;SDS011;4590;51.462;6.692;2023-10-13T04:05:32;12.77;;;7.47;;
9108;SDS011;4590;51.462;6.692;2023-10-13T04:08:06;9.98;;;6.53;;
9108;SDS011;4590;51.462;6.692;2023-10-13T04:10:54;10.07;;;6.70;;
9108;SDS011;4590;51.462;6.692;2023-10-13T04:13:20;11.68;;;7.55;;
9108;SDS011;4590;51.462;6.692;2023-10-13T04:16:04;11.68;;;7.13;;
9108;SDS011;4590;51.462;6.692;2023-10-13T04:18:51;10.25;;;6.10;;
9108;SDS011;4590;51.462;6.692;2023-10-13T04:21:25;12.57;;;7.88;;
9108;SDS011;4590;51.462;6.692;2023-10-13T04:24:14;15.55;;;7.55;;
9108;SDS011;4590;51.462;6.692;2023-10-13T04:26:42;9.70;;;7.05;;
9108;SDS011;4590;51.462;6.692;2023-10-13T04:29:27;11.38;;;7.50;;
9108;SDS011;4590;51.462;6.692;2023-10-13T04:32:10;13.40;;;7.78;;
9108;SDS011;4590;51.462;6.692;2023-10-13T04:34:39;10.88;;;7.50;;
9108;SDS011;4590;51.462;6.692;2023-10-13T04:37:04;10.35;;;6.63;;
9108;SDS011;4590;51.462;6.692;2023-10-13T04:40:08;13.73;;;7.72;;
9108;SDS011;4590;51.462;6.692;2023-10-13T04:42:35;13.45;;;6.55;;
9108;SDS011;4590;51.462;6.692;2023-10-13T04:45:22;12.45;;;7.07;;
9108;SDS011;4590;51.462;6.692;2023-10-13T04:47:56;10.48;;;6.28;;
9108;SDS011;4590;51.462;6.692;2023-10-13T04:50:37;11.75;;;6.60;;
9108;SDS011;4590;51.462;6.692;2023-10-13T04:53:09;12.20;;;6.35;;
9108;SDS011;4590;51.462;6.692;2023-10-13T04:55:52;10.85;;;6.22;;
9108;SDS011;4590;51.462;6.692;2023-10-13T04:58:27;10.05;;;6.32;;
9108;SDS011;4590;51.462;6.692;2023-10-13T05:01:31;9.35;;;5.90;;
9108;SDS011;4590;51.462;6.692;2023-10-13T05:04:15;10.00;;;5.82;;
9108;SDS011;4590;51.462;6.692;2023-10-13T05:06:43;8.48;;;5.78;;
9108;SDS011;4590;51.462;6.692;2023-10-13T05:09:09;8.87;;;6.10;;
9108;SDS011;4590;51.462;6.692;2023-10-13T05:11:56;8.57;;;5.25;;
9108;SDS011;4590;51.462;6.692;2023-10-13T05:14:40;9.65;;;5.63;;
9108;SDS011;4590;51.462;6.692;2023-10-13T05:17:24;9.02;;;6.50;;
9108;SDS011;4590;51.462;6.692;2023-10-13T05:20:08;9.05;;;6.53;;
9108;SDS011;4590;51.462;6.692;2023-10-13T05:22:52;8.40;;;5.35;;
9108;SDS011;4590;51.462;6.692;2023-10-13T05:25:37;13.10;;;6.05;;
9108;SDS011;4590;51.462;6.692;2023-10-13T05:28:22;10.32;;;6.20;;
9108;SDS011;4590;51.462;6.692;2023-10-13T05:31:06;10.90;;;6.32;;
9108;SDS011;4590;51.462;6.692;2023-10-13T05:33:51;10.13;;;5.47;;
9108;SDS011;4590;51.462;6.692;2023-10-13T05:36:35;11.63;;;6.18;;
9108;SDS011;4590;51.462;6.692;2023-10-13T05:39:19;10.48;;;5.95;;
9108;SDS011;4590;51.462;6.692;2023-10-13T05:42:03;10.73;;;5.82;;
9108;SDS011;4590;51.462;6.692;2023-10-13T05:44:47;10.32;;;5.88;;
9108;SDS011;4590;51.462;6.692;2023-10-13T05:47:22;9.15;;;5.72;;
9108;SDS011;4590;51.462;6.692;2023-10-13T05:50:11;8.55;;;5.43;;
9108;SDS011;4590;51.462;6.692;2023-10-13T05:52:48;8.93;;;5.55;;
9108;SDS011;4590;51.462;6.692;2023-10-13T05:55:27;10.48;;;5.10;;
9108;SDS011;4590;51.462;6.692;2023-10-13T05:58:12;10.60;;;5.63;;
9108;SDS011;4590;51.462;6.692;2023-10-13T06:00:56;9.93;;;5.95;;
9108;SDS011;4590;51.462;6.692;2023-10-13T06:03:40;10.50;;;5.45;;
9108;SDS011;4590;51.462;6.692;2023-10-13T06:06:25;10.50;;;5.63;;
9108;SDS011;4590;51.462;6.692;2023-10-13T06:09:09;7.85;;;5.07;;
9108;SDS011;4590;51.462;6.692;2023-10-13T06:11:53;8.50;;;5.25;;
9108;SDS011;4590;51.462;6.692;2023-10-13T06:14:37;7.95;;;5.05;;
9108;SDS011;4590;51.462;6.692;2023-10-13T06:17:21;9.43;;;4.60;;
9108;SDS011;4590;51.462;6.692;2023-10-13T06:20:06;7.88;;;4.30;;
9108;SDS011;4590;51.462;6.692;2023-10-13T06:22:50;8.52;;;4.03;;
9108;SDS011;4590;51.462;6.692;2023-10-13T06:25:34;9.27;;;3.60;;
9108;SDS011;4590;51.462;6.692;2023-10-13T06:28:18;8.15;;;4.55;;
9108;SDS011;4590;51.462;6.692;2023-10-13T06:31:03;7.68;;;3.53;;
9108;SDS011;4590;51.462;6.692;2023-10-13T06:33:32;9.57;;;3.67;;
9108;SDS011;4590;51.462;6.692;2023-10-13T06:36:07;5.93;;;3.22;;
9108;SDS011;4590;51.462;6.692;2023-10-13T06:38:34;6.53;;;3.85;;
9108;SDS011;4590;51.462;6.692;2023-10-13T06:41:04;8.60;;;3.20;;
9108;SDS011;4590;51.462;6.692;2023-10-13T06:43:36;8.30;;;3.55;;
9108;SDS011;4590;51.462;6.692;2023-10-13T06:46:08;8.65;;;3.80;;
9108;SDS011;4590;51.462;6.692;2023-10-13T06:48:48;6.95;;;3.17;;
9108;SDS011;4590;51.462;6.692;2023-10-13T06:51:15;9.05;;;3.55;;
9108;SDS011;4590;51.462;6.692;2023-10-13T06:53:44;11.95;;;3.85;;
9108;SDS011;4590;51.462;6.692;2023-10-13T06:56:12;9.55;;;4.28;;
9108;SDS011;4590;51.462;6.692;2023-10-13T06:58:43;7.70;;;3.45;;
9108;SDS011;4590;51.462;6.692;2023-10-13T07:01:09;8.70;;;3.53;;
9108;SDS011;4590;51.462;6.692;2023-10-13T07:03:39;9.77;;;3.47;;
9108;SDS011;4590;51.462;6.692;2023-10-13T07:06:05;8.35;;;4.10;;
9108;SDS011;4590;51.462;6.692;2023-10-13T07:08:36;8.90;;;3.78;;
9108;SDS011;4590;51.462;6.692;2023-10-13T07:11:02;10.52;;;3.83;;
9108;SDS011;4590;51.462;6.692;2023-10-13T07:13:31;9.40;;;3.17;;
9108;SDS011;4590;51.462;6.692;2023-10-13T07:16:02;7.25;;;3.35;;
9108;SDS011;4590;51.462;6.692;2023-10-13T07:18:37;9.88;;;3.17;;
9108;SDS011;4590;51.462;6.692;2023-10-13T07:21:12;8.70;;;3.67;;
9108;SDS011;4590;51.462;6.692;2023-10-13T07:23:38;8.83;;;4.00;;
9108;SDS011;4590;51.462;6.692;2023-10-13T07:26:04;8.65;;;3.67;;
9108;SDS011;4590;51.462;6.692;2023-10-13T07:28:31;9.38;;;3.53;;
9108;SDS011;4590;51.462;6.692;2023-10-13T07:31:01;16.33;;;4.95;;
9108;SDS011;4590;51.462;6.692;2023-10-13T07:36:02;7.77;;;3.97;;
9108;SDS011;4590;51.462;6.692;2023-10-13T07:38:53;8.10;;;4.22;;
9108;SDS011;4590;51.462;6.692;2023-10-13T07:41:57;8.15;;;4.10;;
9108;SDS011;4590;51.462;6.692;2023-10-13T07:44:40;7.18;;;3.78;;
9108;SDS011;4590;51.462;6.692;2023-10-13T07:47:10;10.15;;;4.10;;
9108;SDS011;4590;51.462;6.692;2023-10-13T07:49:37;8.95;;;4.05;;
9108;SDS011;4590;51.462;6.692;2023-10-13T07:52:07;12.10;;;4.32;;
9108;SDS011;4590;51.462;6.692;2023-10-13T07:54:47;10.07;;;4.50;;
9108;SDS011;4590;51.462;6.692;2023-10-13T07:57:32;11.32;;;5.35;;
9108;SDS011;4590;51.462;6.692;2023-10-13T07:59:58;12.65;;;6.10;;
9108;SDS011;4590;51.462;6.692;2023-10-13T08:02:55;13.05;;;6.00;;
9108;SDS011;4590;51.462;6.692;2023-10-13T08:05:32;12.48;;;6.18;;
9108;SDS011;4590;51.462;6.692;2023-10-13T08:08:17;16.25;;;6.55;;
9108;SDS011;4590;51.462;6.692;2023-10-13T08:10:43;11.02;;;6.30;;
9108;SDS011;4590;51.462;6.692;2023-10-13T08:13:10;10.00;;;5.40;;
9108;SDS011;4590;51.462;6.692;2023-10-13T08:15:41;12.32;;;6.35;;
9108;SDS011;4590;51.462;6.692;2023-10-13T08:18:13;12.38;;;5.82;;
9108;SDS011;4590;51.462;6.692;2023-10-13T08:20:55;11.07;;;5.63;;
9108;SDS011;4590;51.462;6.692;2023-10-13T08:23:27;9.43;;;4.70;;
9108;SDS011;4590;51.462;6.692;2023-10-13T08:26:13;8.32;;;4.43;;
9108;SDS011;4590;51.462;6.692;2023-10-13T08:28:54;9.18;;;4.45;;
9108;SDS011;4590;51.462;6.692;2023-10-13T08:31:49;9.88;;;3.60;;
9108;SDS011;4590;51.462;6.692;2023-10-13T08:34:46;8.15;;;4.40;;
9108;SDS011;4590;51.462;6.692;2023-10-13T08:37:12;9.13;;;3.88;;
9108;SDS011;4590;51.462;6.692;2023-10-13T08:39:44;7.88;;;4.05;;
9108;SDS011;4590;51.462;6.692;2023-10-13T08:42:24;9.05;;;4.30;;
9108;SDS011;4590;51.462;6.692;2023-10-13T08:45:09;8.35;;;3.97;;
9108;SDS011;4590;51.462;6.692;2023-10-13T08:47:48;9.35;;;4.18;;
9108;SDS011;4590;51.462;6.692;2023-10-13T08:50:36;8.82;;;3.97;;
9108;SDS011;4590;51.462;6.692;2023-10-13T08:58:30;11.60;;;4.05;;
9108;SDS011;4590;51.462;6.692;2023-10-13T09:01:14;9.95;;;3.97;;
9108;SDS011;4590;51.462;6.692;2023-10-13T09:03:59;11.45;;;4.13;;
9108;SDS011;4590;51.462;6.692;2023-10-13T09:06:47;8.05;;;4.53;;
9108;SDS011;4590;51.462;6.692;2023-10-13T09:12:24;7.40;;;3.22;;
9108;SDS011;4590;51.462;6.692;2023-10-13T09:15:01;7.68;;;3.17;;
9108;SDS011;4590;51.462;6.692;2023-10-13T09:17:40;7.05;;;3.22;;
9108;SDS011;4590;51.462;6.692;2023-10-13T09:20:12;9.10;;;3.38;;
9108;SDS011;4590;51.462;6.692;2023-10-13T09:22:51;7.75;;;3.83;;
9108;SDS011;4590;51.462;6.692;2023-10-13T09:28:03;14.43;;;4.25;;
9108;SDS011;4590;51.462;6.692;2023-10-13T09:30:50;9.10;;;3.38;;
9108;SDS011;4590;51.462;6.692;2023-10-13T09:33:30;9.82;;;3.95;;
9108;SDS011;4590;51.462;6.692;2023-10-13T09:36:05;7.53;;;3.17;;
9108;SDS011;4590;51.462;6.692;2023-10-13T09:38:32;6.70;;;3.92;;
9108;SDS011;4590;51.462;6.692;2023-10-13T09:40:58;9.18;;;3.53;;
9108;SDS011;4590;51.462;6.692;2023-10-13T09:43:27;8.95;;;3.55;;
9108;SDS011;4590;51.462;6.692;2023-10-13T09:45:58;9.80;;;3.88;;
9108;SDS011;4590;51.462;6.692;2023-10-13T09:48:32;8.68;;;3.53;;
9108;SDS011;4590;51.462;6.692;2023-10-13T09:51:06;9.82;;;3.55;;
9108;SDS011;4590;51.462;6.692;2023-10-13T09:53:37;10.63;;;4.00;;
9108;SDS011;4590;51.462;6.692;2023-10-13T09:56:08;9.43;;;3.47;;
9108;SDS011;4590;51.462;6.692;2023-10-13T09:59:11;9.82;;;3.67;;
9108;SDS011;4590;51.462;6.692;2023-10-13T10:05:54;8.82;;;4.10;;
9108;SDS011;4590;51.462;6.692;2023-10-13T10:08:29;6.70;;;3.60;;
9108;SDS011;4590;51.462;6.692;2023-10-13T10:13:52;10.45;;;3.97;;
9108;SDS011;4590;51.462;6.692;2023-10-13T10:19:51;5.63;;;3.38;;
9108;SDS011;4590;51.462;6.692;2023-10-13T10:22:28;7.23;;;3.60;;
9108;SDS011;4590;51.462;6.692;2023-10-13T10:25:04;6.63;;;3.85;;
9108;SDS011;4590;51.462;6.692;2023-10-13T10:27:56;6.45;;;3.53;;
9108;SDS011;4590;51.462;6.692;2023-10-13T10:32:57;8.60;;;4.22;;
9108;SDS011;4590;51.462;6.692;2023-10-13T10:35:27;9.57;;;4.20;;
9108;SDS011;4590;51.462;6.692;2023-10-13T10:37:58;8.82;;;4.05;;
9108;SDS011;4590;51.462;6.692;2023-10-13T10:40:47;6.55;;;3.58;;
9108;SDS011;4590;51.462;6.692;2023-10-13T10:43:17;10.48;;;4.28;;
9108;SDS011;4590;51.462;6.692;2023-10-13T10:45:46;9.82;;;4.20;;
9108;SDS011;4590;51.462;6.692;2023-10-13T10:48:15;7.90;;;4.15;;
9108;SDS011;4590;51.462;6.692;2023-10-13T10:50:51;7.38;;;4.30;;
9108;SDS011;4590;51.462;6.692;2023-10-13T10:53:21;8.02;;;4.15;;
9108;SDS011;4590;51.462;6.692;2023-10-13T10:56:05;10.32;;;4.93;;
9108;SDS011;4590;51.462;6.692;2023-10-13T10:58:44;10.90;;;4.47;;
9108;SDS011;4590;51.462;6.692;2023-10-13T11:01:19;7.72;;;3.95;;
9108;SDS011;4590;51.462;6.692;2023-10-13T11:03:58;8.63;;;4.22;;
9108;SDS011;4590;51.462;6.692;2023-10-13T11:06:33;7.07;;;4.55;;
9108;SDS011;4590;51.462;6.692;2023-10-13T11:11:46;5.85;;;3.83;;
9108;SDS011;4590;51.462;6.692;2023-10-13T11:14:25;15.02;;;4.45;;
9108;SDS011;4590;51.462;6.692;2023-10-13T11:16:51;8.95;;;4.18;;
9108;SDS011;4590;51.462;6.692;2023-10-13T11:19:19;9.45;;;4.63;;
9108;SDS011;4590;51.462;6.692;2023-10-13T11:21:50;9.02;;;4.25;;
9108;SDS011;4590;51.462;6.692;2023-10-13T11:24:15;11.95;;;4.75;;
9108;SDS011;4590;51.462;6.692;2023-10-13T11:26:42;8.30;;;4.38;;
9108;SDS011;4590;51.462;6.692;2023-10-13T11:29:35;9.95;;;5.13;;
9108;SDS011;4590;51.462;6.692;2023-10-13T11:32:00;6.85;;;4.35;;
9108;SDS011;4590;51.462;6.692;2023-10-13T11:34:25;9.18;;;4.15;;
9108;SDS011;4590;51.462;6.692;2023-10-13T11:36:55;10.60;;;4.88;;
9108;SDS011;4590;51.462;6.692;2023-10-13T11:39:20;9.95;;;4.40;;
9108;SDS011;4590;51.462;6.692;2023-10-13T11:41:50;9.15;;;4.35;;
9108;SDS011;4590;51.462;6.692;2023-10-13T11:44:19;9.30;;;4.45;;
9108;SDS011;4590;51.462;6.692;2023-10-13T11:46:45;8.25;;;4.53;;
9108;SDS011;4590;51.462;6.692;2023-10-13T11:49:13;9.35;;;4.38;;
9108;SDS011;4590;51.462;6.692;2023-10-13T11:51:39;9.32;;;4.40;;
9108;SDS011;4590;51.462;6.692;2023-10-13T11:54:17;8.90;;;4.13;;
9108;SDS011;4590;51.462;6.692;2023-10-13T11:56:44;8.93;;;4.15;;
9108;SDS011;4590;51.462;6.692;2023-10-13T11:59:10;7.93;;;4.03;;
9108;SDS011;4590;51.462;6.692;2023-10-13T12:01:43;8.07;;;3.78;;
9108;SDS011;4590;51.462;6.692;2023-10-13T12:04:30;9.07;;;4.10;;
9108;SDS011;4590;51.462;6.692;2023-10-13T12:06:57;6.95;;;4.05;;
9108;SDS011;4590;51.462;6.692;2023-10-13T12:09:41;8.02;;;4.00;;
9108;SDS011;4590;51.462;6.692;2023-10-13T12:12:17;9.17;;;3.70;;
9108;SDS011;4590;51.462;6.692;2023-10-13T12:14:42;13.23;;;3.75;;
9108;SDS011;4590;51.462;6.692;2023-10-13T12:17:17;9.18;;;3.47;;
9108;SDS011;4590;51.462;6.692;2023-10-13T12:19:51;9.15;;;4.10;;
9108;SDS011;4590;51.462;6.692;2023-10-13T12:22:17;10.27;;;4.50;;
9108;SDS011;4590;51.462;6.692;2023-10-13T12:24:50;8.60;;;3.80;;
9108;SDS011;4590;51.462;6.692;2023-10-13T12:27:18;10.18;;;3.83;;
9108;SDS011;4590;51.462;6.692;2023-10-13T12:29:47;13.23;;;4.03;;
9108;SDS011;4590;51.462;6.692;2023-10-13T12:32:13;11.38;;;3.40;;
9108;SDS011;4590;51.462;6.692;2023-10-13T12:34:42;8.75;;;3.40;;
9108;SDS011;4590;51.462;6.692;2023-10-13T12:37:27;10.00;;;4.18;;
9108;SDS011;4590;51.462;6.692;2023-10-13T12:40:10;15.45;;;4.22;;
9108;SDS011;4590;51.462;6.692;2023-10-13T12:45:43;10.50;;;3.35;;
9108;SDS011;4590;51.462;6.692;2023-10-13T12:48:29;9.38;;;3.53;;
9108;SDS011;4590;51.462;6.692;2023-10-13T12:51:13;11.40;;;3.85;;
9108;SDS011;4590;51.462;6.692;2023-10-13T12:53:53;10.95;;;4.13;;
9108;SDS011;4590;51.462;6.692;2023-10-13T12:56:20;12.02;;;3.80;;
9108;SDS011;4590;51.462;6.692;2023-10-13T12:58:52;12.50;;;4.22;;
9108;SDS011;4590;51.462;6.692;2023-10-13T13:01:20;13.82;;;4.00;;
9108;SDS011;4590;51.462;6.692;2023-10-13T13:03:56;14.75;;;4.13;;
9108;SDS011;4590;51.462;6.692;2023-10-13T13:06:22;12.77;;;4.10;;
9108;SDS011;4590;51.462;6.692;2023-10-13T13:08:54;15.82;;;4.72;;
9108;SDS011;4590;51.462;6.692;2023-10-13T13:11:26;13.63;;;3.92;;
9108;SDS011;4590;51.462;6.692;2023-10-13T13:13:54;11.65;;;3.63;;
9108;SDS011;4590;51.462;6.692;2023-10-13T13:16:20;12.73;;;4.28;;
9108;SDS011;4590;51.462;6.692;2023-10-13T13:18:52;11.70;;;4.65;;
9108;SDS011;4590;51.462;6.692;2023-10-13T13:21:19;15.02;;;3.97;;
9108;SDS011;4590;51.462;6.692;2023-10-13T13:23:49;8.75;;;3.80;;
9108;SDS011;4590;51.462;6.692;2023-10-13T13:26:15;8.93;;;3.90;;
9108;SDS011;4590;51.462;6.692;2023-10-13T13:28:47;12.82;;;4.25;;
9108;SDS011;4590;51.462;6.692;2023-10-13T13:31:16;9.50;;;3.45;;
9108;SDS011;4590;51.462;6.692;2023-10-13T13:33:42;11.70;;;3.90;;
9108;SDS011;4590;51.462;6.692;2023-10-13T13:36:09;14.13;;;4.97;;
9108;SDS011;4590;51.462;6.692;2023-10-13T13:38:43;14.65;;;3.88;;
9108;SDS011;4590;51.462;6.692;2023-10-13T13:41:14;12.77;;;4.10;;
9108;SDS011;4590;51.462;6.692;2023-10-13T13:43:45;10.90;;;4.13;;
9108;SDS011;4590;51.462;6.692;2023-10-13T13:46:15;13.27;;;4.25;;
9108;SDS011;4590;51.462;6.692;2023-10-13T13:48:41;10.77;;;3.67;;
9108;SDS011;4590;51.462;6.692;2023-10-13T13:51:07;8.32;;;4.38;;
9108;SDS011;4590;51.462;6.692;2023-10-13T13:53:51;10.48;;;3.65;;
9108;SDS011;4590;51.462;6.692;2023-10-13T13:56:17;11.40;;;3.67;;
9108;SDS011;4590;51.462;6.692;2023-10-13T13:58:47;10.93;;;4.13;;
9108;SDS011;4590;51.462;6.692;2023-10-13T14:01:14;12.18;;;3.38;;
9108;SDS011;4590;51.462;6.692;2023-10-13T14:03:43;10.02;;;3.67;;
9108;SDS011;4590;51.462;6.692;2023-10-13T14:06:12;14.45;;;3.70;;
9108;SDS011;4590;51.462;6.692;2023-10-13T14:08:57;14.90;;;4.22;;
9108;SDS011;4590;51.462;6.692;2023-10-13T14:11:58;12.20;;;3.72;;
9108;SDS011;4590;51.462;6.692;2023-10-13T14:14:42;10.68;;;3.63;;
9108;SDS011;4590;51.462;6.692;2023-10-13T14:17:16;12.43;;;3.80;;
9108;SDS011;4590;51.462;6.692;2023-10-13T14:19:41;11.05;;;3.63;;
9108;SDS011;4590;51.462;6.692;2023-10-13T14:22:09;10.57;;;3.50;;
9108;SDS011;4590;51.462;6.692;2023-10-13T14:24:37;9.40;;;3.20;;
9108;SDS011;4590;51.462;6.692;2023-10-13T14:27:08;9.65;;;3.70;;
9108;SDS011;4590;51.462;6.692;2023-10-13T14:29:40;8.02;;;2.97;;
9108;SDS011;4590;51.462;6.692;2023-10-13T14:32:07;10.13;;;3.20;;
9108;SDS011;4590;51.462;6.692;2023-10-13T14:34:44;11.32;;;3.75;;
9108;SDS011;4590;51.462;6.692;2023-10-13T14:37:11;9.10;;;3.20;;
9108;SDS011;4590;51.462;6.692;2023-10-13T14:39:42;13.70;;;3.25;;
9108;SDS011;4590;51.462;6.692;2023-10-13T14:42:07;9.00;;;3.72;;
9108;SDS011;4590;51.462;6.692;2023-10-13T14:44:33;9.30;;;3.55;;
9108;SDS011;4590;51.462;6.692;2023-10-13T14:46:58;8.52;;;4.25;;
9108;SDS011;4590;51.462;6.692;2023-10-13T14:49:24;10.77;;;3.05;;
9108;SDS011;4590;51.462;6.692;2023-10-13T14:51:50;9.05;;;3.45;;
9108;SDS011;4590;51.462;6.692;2023-10-13T14:54:15;8.77;;;3.53;;
9108;SDS011;4590;51.462;6.692;2023-10-13T14:56:41;9.15;;;2.95;;
9108;SDS011;4590;51.462;6.692;2023-10-13T14:59:07;10.50;;;3.35;;
9108;SDS011;4590;51.462;6.692;2023-10-13T15:01:37;14.77;;;3.47;;
9108;SDS011;4590;51.462;6.692;2023-10-13T15:04:02;8.93;;;4.35;;
9108;SDS011;4590;51.462;6.692;2023-10-13T15:06:29;10.93;;;4.15;;
9108;SDS011;4590;51.462;6.692;2023-10-13T15:08:55;10.82;;;3.25;;
9108;SDS011;4590;51.462;6.692;2023-10-13T15:11:22;8.75;;;3.30;;
9108;SDS011;4590;51.462;6.692;2023-10-13T15:14:04;8.77;;;3.30;;
9108;SDS011;4590;51.462;6.692;2023-10-13T15:16:31;9.48;;;3.25;;
9108;SDS011;4590;51.462;6.692;2023-10-13T15:18:58;11.73;;;4.22;;
9108;SDS011;4590;51.462;6.692;2023-10-13T15:21:25;9.50;;;3.20;;
9108;SDS011;4590;51.462;6.692;2023-10-13T15:23:55;10.23;;;3.30;;
9108;SDS011;4590;51.462;6.692;2023-10-13T15:26:38;7.30;;;3.03;;
9108;SDS011;4590;51.462;6.692;2023-10-13T15:29:10;9.65;;;3.13;;
9108;SDS011;4590;51.462;6.692;2023-10-13T15:31:40;10.15;;;3.47;;
9108;SDS011;4590;51.462;6.692;2023-10-13T15:34:08;7.60;;;3.35;;
9108;SDS011;4590;51.462;6.692;2023-10-13T15:36:40;8.32;;;3.42;;
9108;SDS011;4590;51.462;6.692;2023-10-13T15:39:09;8.02;;;2.90;;
9108;SDS011;4590;51.462;6.692;2023-10-13T15:41:35;9.90;;;3.15;;
9108;SDS011;4590;51.462;6.692;2023-10-13T15:44:05;6.70;;;3.10;;
9108;SDS011;4590;51.462;6.692;2023-10-13T15:46:35;8.38;;;3.00;;
9108;SDS011;4590;51.462;6.692;2023-10-13T15:49:01;10.77;;;3.03;;
9108;SDS011;4590;51.462;6.692;2023-10-13T15:51:28;9.43;;;3.50;;
9108;SDS011;4590;51.462;6.692;2023-10-13T15:53:54;10.13;;;3.40;;
9108;SDS011;4590;51.462;6.692;2023-10-13T15:56:20;8.82;;;3.60;;
9108;SDS011;4590;51.462;6.692;2023-10-13T16:01:14;7.28;;;3.60;;
9108;SDS011;4590;51.462;6.692;2023-10-13T16:03:41;6.80;;;2.95;;
9108;SDS011;4590;51.462;6.692;2023-10-13T16:06:14;9.25;;;3.40;;
9108;SDS011;4590;51.462;6.692;2023-10-13T16:08:40;6.45;;;3.05;;
9108;SDS011;4590;51.462;6.692;2023-10-13T16:11:12;8.15;;;3.53;;
9108;SDS011;4590;51.462;6.692;2023-10-13T16:13:44;4.93;;;3.13;;
9108;SDS011;4590;51.462;6.692;2023-10-13T16:16:23;8.82;;;3.33;;
9108;SDS011;4590;51.462;6.692;2023-10-13T16:18:51;9.60;;;3.80;;
9108;SDS011;4590;51.462;6.692;2023-10-13T16:21:18;7.95;;;3.30;;
9108;SDS011;4590;51.462;6.692;2023-10-13T16:23:45;6.55;;;3.00;;
9108;SDS011;4590;51.462;6.692;2023-10-13T16:26:13;6.88;;;2.85;;
9108;SDS011;4590;51.462;6.692;2023-10-13T16:28:39;6.97;;;3.33;;